createdAt,value
2022-08-07T00:00:36.505Z,49.99
2022-08-07T00:03:07.267Z,50.33
2022-08-07T00:05:36.281Z,50.34
2022-08-07T00:08:04.763Z,50.73
2022-08-07T00:10:31.811Z,51.00
2022-08-07T00:13:09.842Z,51.89
2022-08-07T00:15:50.941Z,52.22
2022-08-07T00:18:24.565Z,52.54
2022-08-07T00:20:54.080Z,52.88
2022-08-07T00:23:21.179Z,53.30
2022-08-07T00:26:00.362Z,54.25
2022-08-07T00:28:33.734Z,54.88
2022-08-07T00:31:12.240Z,55.70
2022-08-07T00:33:40.555Z,55.87
2022-08-07T00:36:08.389Z,56.17
2022-08-07T00:38:36.777Z,56.07
2022-08-07T00:41:10.087Z,56.58
2022-08-07T00:43:59.754Z,56.17
2022-08-07T00:46:28.003Z,56.17
2022-08-07T00:48:54.459Z,55.67
2022-08-07T00:51:21.581Z,55.23
2022-08-07T00:53:50.888Z,55.68
2022-08-07T00:56:22.664Z,55.33
2022-08-07T00:58:49.717Z,55.95
2022-08-07T01:01:18.197Z,55.79
2022-08-07T01:03:56.552Z,56.17
2022-08-07T01:06:29.126Z,56.74
2022-08-07T01:08:58.352Z,56.80
2022-08-07T01:12:09.982Z,57.29
2022-08-07T01:14:12.700Z,57.45
2022-08-07T01:16:43.100Z,57.47
2022-08-07T01:19:18.046Z,58.03
2022-08-07T01:21:47.271Z,58.32
2022-08-07T01:24:14.622Z,58.67
2022-08-07T01:26:52.300Z,58.21
2022-08-07T01:29:19.947Z,58.77
2022-08-07T01:31:48.569Z,58.72
2022-08-07T01:34:15.594Z,59.02
2022-08-07T01:36:44.265Z,59.46
2022-08-07T01:39:17.953Z,59.41
2022-08-07T01:42:07.719Z,59.79
2022-08-07T01:44:31.494Z,60.03
2022-08-07T01:46:58.819Z,59.95
2022-08-07T01:49:27.673Z,60.37
2022-08-07T01:52:04.942Z,60.66
2022-08-07T01:54:39.574Z,60.66
2022-08-07T01:57:20.771Z,60.98
2022-08-07T02:00:12.988Z,61.20
2022-08-07T02:03:12.204Z,61.68
2022-08-07T02:05:48.566Z,62.14
2022-08-07T02:08:27.921Z,61.59
2022-08-07T02:10:59.189Z,61.59
2022-08-07T02:13:56.851Z,61.89
2022-08-07T02:16:18.153Z,62.09
2022-08-07T02:18:49.340Z,62.18
2022-08-07T02:21:19.691Z,62.49
2022-08-07T02:23:47.677Z,62.39
2022-08-07T02:26:33.943Z,62.46
2022-08-07T02:29:02.998Z,63.13
2022-08-07T02:31:32.665Z,62.92
2022-08-07T02:34:03.028Z,62.63
2022-08-07T02:36:33.011Z,62.76
2022-08-07T02:39:02.611Z,63.06
2022-08-07T02:41:50.648Z,63.20
2022-08-07T02:44:21.427Z,63.34
2022-08-07T02:46:52.663Z,63.41
2022-08-07T02:49:28.683Z,63.34
2022-08-07T02:52:09.921Z,63.38
2022-08-07T02:54:41.647Z,63.87
2022-08-07T02:57:12.764Z,63.82
2022-08-07T02:59:45.571Z,63.78
2022-08-07T03:02:22.659Z,63.73
2022-08-07T03:04:53.221Z,64.35
2022-08-07T03:07:21.498Z,64.16
2022-08-07T03:10:08.902Z,64.71
2022-08-07T03:12:36.642Z,64.83
2022-08-07T03:15:07.847Z,64.69
2022-08-07T03:17:54.093Z,64.74
2022-08-07T03:20:23.127Z,65.05
2022-08-07T03:22:50.999Z,65.22
2022-08-07T03:25:21.086Z,65.23
2022-08-07T03:27:59.144Z,65.62
2022-08-07T03:30:27.175Z,65.66
2022-08-07T03:32:58.243Z,65.22
2022-08-07T03:35:44.087Z,66.09
2022-08-07T03:38:16.322Z,65.56
2022-08-07T03:40:47.781Z,65.56
2022-08-07T03:43:26.480Z,65.41
2022-08-07T03:45:53.668Z,65.76
2022-08-07T03:48:20.552Z,66.06
2022-08-07T03:50:56.177Z,66.39
2022-08-07T03:53:50.167Z,66.70
2022-08-07T03:56:14.527Z,66.84
2022-08-07T03:59:07.869Z,66.79
2022-08-07T04:01:30.120Z,67.13
2022-08-07T04:03:59.498Z,67.39
2022-08-07T04:06:37.722Z,67.83
2022-08-07T04:09:06.024Z,67.76
2022-08-07T04:12:23.874Z,67.89
2022-08-07T04:14:37.576Z,68.14
2022-08-07T04:17:20.009Z,68.53
2022-08-07T04:19:52.481Z,68.47
2022-08-07T04:22:27.374Z,68.62
2022-08-07T04:24:58.095Z,68.50
2022-08-07T04:27:26.463Z,68.85
2022-08-07T04:30:01.390Z,68.77
2022-08-07T04:32:33.901Z,69.21
2022-08-07T04:35:05.340Z,68.83
2022-08-07T04:37:52.726Z,69.28
2022-08-07T04:40:20.624Z,69.29
2022-08-07T04:42:47.076Z,69.59
2022-08-07T04:45:44.378Z,69.55
2022-08-07T04:48:12.445Z,69.34
2022-08-07T04:50:45.247Z,69.01
2022-08-07T04:54:00.937Z,69.22
2022-08-07T04:58:09.811Z,69.31
2022-08-07T05:00:17.383Z,69.50
2022-08-07T05:04:01.144Z,69.78
2022-08-07T05:06:16.403Z,70.01
2022-08-07T05:09:10.539Z,70.02
2022-08-07T05:11:58.899Z,68.60
2022-08-07T05:14:53.264Z,68.65
2022-08-07T05:17:51.928Z,68.19
2022-08-07T05:20:16.765Z,68.42
2022-08-07T05:22:46.908Z,67.74
2022-08-07T05:25:25.650Z,67.81
2022-08-07T05:28:20.254Z,67.64
2022-08-07T05:30:52.411Z,66.90
2022-08-07T05:33:20.803Z,66.15
2022-08-07T05:35:50.814Z,66.24
2022-08-07T05:38:58.112Z,65.70
2022-08-07T05:41:14.523Z,65.51
2022-08-07T05:44:01.271Z,65.16
2022-08-07T05:46:36.102Z,64.64
2022-08-07T05:49:12.059Z,64.05
2022-08-07T05:51:42.296Z,62.79
2022-08-07T05:54:29.854Z,62.49
2022-08-07T05:56:57.734Z,61.54
2022-08-07T05:59:26.279Z,61.33
2022-08-07T06:01:54.613Z,61.41
2022-08-07T06:04:29.769Z,60.12
2022-08-07T06:07:03.441Z,59.76
2022-08-07T06:09:44.969Z,59.73
2022-08-07T06:12:18.637Z,59.58
2022-08-07T06:14:49.539Z,58.42
2022-08-07T06:17:18.224Z,57.85
2022-08-07T06:19:57.557Z,58.25
2022-08-07T06:22:36.883Z,57.63
2022-08-07T06:25:06.573Z,57.32
2022-08-07T06:27:44.086Z,56.45
2022-08-07T06:30:32.310Z,55.91
2022-08-07T06:33:03.825Z,55.37
2022-08-07T06:35:45.534Z,55.89
2022-08-07T06:38:20.596Z,54.98
2022-08-07T06:40:51.307Z,55.15
2022-08-07T06:43:22.275Z,55.00
2022-08-07T06:45:49.588Z,54.61
2022-08-07T06:48:16.267Z,54.64
2022-08-07T06:50:53.085Z,53.83
2022-08-07T06:55:28.486Z,53.78
2022-08-07T06:56:15.312Z,53.28
2022-08-07T07:00:13.311Z,53.25
2022-08-07T07:01:44.149Z,53.48
2022-08-07T07:04:28.221Z,52.78
2022-08-07T07:07:02.040Z,52.50
2022-08-07T07:09:31.693Z,52.19
2022-08-07T07:12:19.607Z,51.62
2022-08-07T07:14:50.180Z,50.43
2022-08-07T07:17:38.761Z,49.29
2022-08-07T07:20:29.528Z,46.87
2022-08-07T07:24:10.937Z,45.74
2022-08-07T07:26:34.938Z,43.34
2022-08-07T07:29:22.708Z,41.84
2022-08-07T07:31:33.219Z,40.83
2022-08-07T07:34:16.774Z,41.54
2022-08-07T07:36:47.927Z,40.66
2022-08-07T07:39:22.687Z,39.70
2022-08-07T07:42:12.945Z,40.69
2022-08-07T07:44:43.416Z,40.98
2022-08-07T07:47:16.101Z,39.70
2022-08-07T07:50:32.728Z,38.41
2022-08-07T07:52:40.993Z,39.34
2022-08-07T07:55:09.501Z,38.31
2022-08-07T07:57:52.330Z,37.15
2022-08-07T08:00:29.013Z,35.91
2022-08-07T08:03:05.662Z,35.29
2022-08-07T08:05:54.131Z,35.91
2022-08-07T08:08:34.720Z,35.47
2022-08-07T08:11:09.327Z,35.12
2022-08-07T08:13:54.227Z,35.85
2022-08-07T08:16:35.424Z,35.08
2022-08-07T08:19:17.386Z,35.50
2022-08-07T08:22:10.883Z,36.85
2022-08-07T08:25:18.872Z,36.37
2022-08-07T08:27:56.288Z,37.25
2022-08-07T08:30:29.551Z,37.22
2022-08-07T08:33:01.435Z,38.51
2022-08-07T08:35:39.385Z,38.12
2022-08-07T08:38:17.001Z,38.19
2022-08-07T08:40:53.644Z,38.45
2022-08-07T08:43:42.431Z,38.37
2022-08-07T08:46:17.269Z,38.16
2022-08-07T08:49:09.841Z,36.38
2022-08-07T08:52:12.759Z,34.39
2022-08-07T08:54:41.433Z,34.95
2022-08-07T08:57:21.436Z,34.84
2022-08-07T09:00:01.596Z,34.62
2022-08-07T09:02:52.619Z,34.42
2022-08-07T09:05:40.743Z,34.33
2022-08-07T09:08:32.247Z,34.14
2022-08-07T09:11:14.045Z,34.16
2022-08-07T09:13:56.871Z,33.78
2022-08-07T09:16:42.646Z,33.97
2022-08-07T09:19:52.157Z,33.12
2022-08-07T09:24:31.903Z,33.58
2022-08-07T09:25:27.165Z,33.87
2022-08-07T09:28:04.922Z,34.77
2022-08-07T09:31:13.419Z,32.67
2022-08-07T09:34:16.568Z,33.47
2022-08-07T09:37:01.777Z,33.29
2022-08-07T09:39:54.506Z,32.06
2022-08-07T09:42:41.101Z,31.48
2022-08-07T09:47:25.040Z,33.08
2022-08-07T09:50:02.271Z,33.05
2022-08-07T09:52:33.490Z,32.27
2022-08-07T09:55:29.002Z,31.00
2022-08-07T09:58:32.608Z,29.85
2022-08-07T10:01:51.081Z,29.70
2022-08-07T10:04:52.836Z,28.82
2022-08-07T10:08:08.149Z,28.70
2022-08-07T10:11:59.801Z,28.92
2022-08-07T10:14:01.766Z,28.07
2022-08-07T10:16:29.378Z,28.24
2022-08-07T10:19:11.257Z,27.47
2022-08-07T10:22:15.135Z,26.93
2022-08-07T10:24:49.141Z,27.33
2022-08-07T10:27:15.885Z,26.61
2022-08-07T10:30:03.641Z,26.39
2022-08-07T10:33:01.757Z,26.55
2022-08-07T10:35:55.567Z,26.87
2022-08-07T10:38:49.291Z,27.17
2022-08-07T10:41:51.486Z,26.90
2022-08-07T10:44:28.805Z,26.21
2022-08-07T10:47:31.345Z,26.01
2022-08-07T10:50:16.933Z,25.84
2022-08-07T10:53:24.971Z,26.22
2022-08-07T10:56:31.172Z,26.73
2022-08-07T10:59:13.605Z,26.10
2022-08-07T11:02:11.819Z,27.30
2022-08-07T11:04:51.323Z,27.78
2022-08-07T11:07:58.733Z,27.52
2022-08-07T11:10:29.861Z,27.07
2022-08-07T11:14:57.260Z,27.54
2022-08-07T11:16:34.197Z,27.21
2022-08-07T11:19:12.007Z,27.23
2022-08-07T11:21:50.261Z,27.25
2022-08-07T11:24:33.495Z,27.75
2022-08-07T11:27:13.380Z,27.44
2022-08-07T11:30:10.096Z,27.11
2022-08-07T11:32:45.836Z,27.48
2022-08-07T11:36:04.664Z,27.71
2022-08-07T11:38:58.025Z,27.50
2022-08-07T11:42:00.299Z,27.10
2022-08-07T11:44:39.609Z,26.81
2022-08-07T11:47:26.065Z,26.80
2022-08-07T11:50:32.692Z,26.84
2022-08-07T11:53:09.872Z,25.95
2022-08-07T11:56:25.051Z,26.78
2022-08-07T11:58:56.291Z,25.93
2022-08-07T12:02:17.765Z,26.26
2022-08-07T12:05:28.569Z,26.19
2022-08-07T12:08:38.753Z,25.33
2022-08-07T12:11:32.493Z,26.33
2022-08-07T12:14:11.109Z,25.46
2022-08-07T12:16:51.224Z,25.45
2022-08-07T12:20:03.279Z,25.74
2022-08-07T12:23:09.103Z,25.26
2022-08-07T12:26:22.096Z,25.22
2022-08-07T12:29:08.883Z,25.02
2022-08-07T12:32:04.365Z,25.22
2022-08-07T12:34:38.809Z,25.79
2022-08-07T12:37:16.989Z,25.51
2022-08-07T12:39:52.459Z,24.93
2022-08-07T12:42:27.905Z,25.02
2022-08-07T12:44:58.246Z,24.44
2022-08-07T12:47:30.717Z,24.73
2022-08-07T12:50:38.568Z,24.77
2022-08-07T12:53:19.118Z,23.87
2022-08-07T12:56:10.054Z,23.72
2022-08-07T12:58:40.085Z,23.68
2022-08-07T13:01:19.168Z,23.81
2022-08-07T13:04:04.589Z,24.79
2022-08-07T13:07:01.293Z,24.78
2022-08-07T13:10:29.361Z,24.48
2022-08-07T13:13:02.679Z,24.03
2022-08-07T13:15:43.859Z,23.47
2022-08-07T13:18:26.567Z,24.13
2022-08-07T13:21:35.014Z,24.33
2022-08-07T13:24:11.370Z,24.35
2022-08-07T13:26:55.579Z,24.48
2022-08-07T13:29:46.969Z,24.26
2022-08-07T13:32:32.850Z,23.66
2022-08-07T13:35:08.829Z,23.95
2022-08-07T13:38:01.326Z,23.86
2022-08-07T13:40:42.707Z,23.45
2022-08-07T13:43:13.321Z,23.62
2022-08-07T13:46:12.490Z,23.80
2022-08-07T13:48:34.722Z,23.82
2022-08-07T13:51:28.210Z,23.70
2022-08-07T13:54:03.577Z,23.69
2022-08-07T13:56:35.400Z,23.96
2022-08-07T13:59:18.307Z,23.80
2022-08-07T14:02:03.899Z,24.02
2022-08-07T14:04:35.796Z,24.36
2022-08-07T14:07:09.493Z,24.28
2022-08-07T14:10:15.656Z,24.00
2022-08-07T14:12:36.203Z,23.57
2022-08-07T14:15:18.594Z,22.93
2022-08-07T14:18:23.942Z,23.06
2022-08-07T14:20:41.161Z,23.25
2022-08-07T14:24:00.261Z,23.05
2022-08-07T14:26:27.993Z,23.18
2022-08-07T14:29:02.956Z,22.88
2022-08-07T14:31:42.230Z,22.74
2022-08-07T14:34:19.921Z,23.45
2022-08-07T14:36:56.374Z,23.35
2022-08-07T14:42:18.177Z,23.93
2022-08-07T14:44:54.001Z,23.50
2022-08-07T14:47:32.645Z,23.21
2022-08-07T14:50:06.659Z,23.48
2022-08-07T14:52:39.255Z,23.38
2022-08-07T14:55:07.066Z,23.41
2022-08-07T15:00:30.476Z,23.40
2022-08-07T15:02:59.409Z,23.30
2022-08-07T15:05:30.229Z,23.72
2022-08-07T15:07:59.007Z,23.66
2022-08-07T15:10:29.856Z,23.95
2022-08-07T15:13:01.259Z,24.05
2022-08-07T15:15:52.790Z,23.77
2022-08-07T15:18:33.618Z,24.38
2022-08-07T15:21:08.240Z,24.24
2022-08-07T15:25:15.379Z,23.89
2022-08-07T15:26:55.938Z,23.87
2022-08-07T15:30:08.905Z,23.30
2022-08-07T15:32:39.047Z,23.46
2022-08-07T15:35:06.599Z,23.66
2022-08-07T15:38:18.212Z,23.48
2022-08-07T15:40:34.608Z,23.45
2022-08-07T15:43:53.196Z,23.84
2022-08-07T15:46:31.674Z,23.20
2022-08-07T15:54:39.437Z,23.42
2022-08-07T15:57:10.698Z,23.42
2022-08-07T15:59:56.631Z,22.97
2022-08-07T16:02:31.629Z,23.15
2022-08-07T16:05:01.768Z,23.36
2022-08-07T16:08:32.271Z,23.02
2022-08-07T16:10:27.811Z,22.83
2022-08-07T16:13:57.770Z,23.15
2022-08-07T16:16:47.585Z,23.43
2022-08-07T16:19:43.138Z,23.53
2022-08-07T16:22:36.434Z,23.23
2022-08-07T16:25:55.058Z,23.18
2022-08-07T16:30:08.533Z,22.94
2022-08-07T16:31:50.773Z,23.37
2022-08-07T16:34:34.080Z,23.00
2022-08-07T16:38:03.393Z,23.08
2022-08-07T16:40:31.961Z,22.95
2022-08-07T16:43:07.568Z,23.16
2022-08-07T16:46:47.319Z,23.05
2022-08-07T16:49:10.640Z,23.10
2022-08-07T16:52:35.450Z,23.17
2022-08-07T16:55:08.117Z,22.95
2022-08-07T16:58:02.530Z,23.24
2022-08-07T17:00:55.438Z,23.56
2022-08-07T17:03:59.668Z,23.56
2022-08-07T17:06:44.260Z,23.13
2022-08-07T17:10:06.939Z,23.25
2022-08-07T17:12:44.729Z,23.26
2022-08-07T17:15:15.683Z,23.11
2022-08-07T17:17:48.052Z,23.17
2022-08-07T17:20:31.107Z,23.21
2022-08-07T17:22:57.524Z,22.95
2022-08-07T17:25:51.304Z,23.11
2022-08-07T17:28:38.262Z,23.14
2022-08-07T17:31:20.780Z,23.21
2022-08-07T17:34:34.046Z,23.54
2022-08-07T17:37:09.557Z,23.33
2022-08-07T17:40:14.771Z,23.49
2022-08-07T17:43:02.197Z,23.60
2022-08-07T17:45:50.408Z,23.19
2022-08-07T17:48:30.639Z,23.60
2022-08-07T17:52:00.725Z,24.19
2022-08-07T17:54:40.254Z,23.76
2022-08-07T17:57:58.998Z,24.19
2022-08-07T18:00:34.509Z,23.66
2022-08-07T18:03:28.778Z,23.78
2022-08-07T18:06:36.656Z,23.74
2022-08-07T18:09:05.671Z,23.71
2022-08-07T18:12:06.743Z,23.97
2022-08-07T18:14:50.465Z,23.90
2022-08-07T18:18:44.995Z,24.13
2022-08-07T18:21:11.783Z,24.48
2022-08-07T18:23:42.634Z,24.17
2022-08-07T18:26:05.337Z,24.53
2022-08-07T18:29:02.202Z,24.37
2022-08-07T18:31:59.455Z,26.13
2022-08-07T18:35:00.709Z,27.33
2022-08-07T18:38:55.184Z,27.77
2022-08-07T18:40:49.266Z,28.37
2022-08-07T18:43:49.296Z,28.89
2022-08-07T18:46:28.360Z,29.02
2022-08-07T18:50:19.275Z,28.78
2022-08-07T18:52:53.681Z,28.93
2022-08-07T18:55:42.946Z,28.95
2022-08-07T18:58:25.390Z,29.68
2022-08-07T19:01:11.958Z,29.59
2022-08-07T19:04:03.896Z,29.91
2022-08-07T19:06:49.696Z,30.59
2022-08-07T19:09:55.426Z,29.93
2022-08-07T19:12:29.892Z,30.72
2022-08-07T19:16:04.528Z,30.64
2022-08-07T19:18:47.876Z,30.57
2022-08-07T19:21:47.802Z,30.99
2022-08-07T19:24:30.959Z,31.11
2022-08-07T19:28:57.463Z,31.40
2022-08-07T19:31:05.487Z,31.00
2022-08-07T19:32:50.368Z,31.50
2022-08-07T19:35:25.672Z,32.04
2022-08-07T19:37:58.589Z,32.29
2022-08-07T19:40:31.696Z,31.93
2022-08-07T19:43:08.683Z,32.67
2022-08-07T19:46:05.426Z,32.41
2022-08-07T19:48:53.514Z,32.34
2022-08-07T19:51:24.380Z,32.63
2022-08-07T19:54:34.344Z,32.99
2022-08-07T19:58:02.984Z,33.21
2022-08-07T19:59:58.729Z,33.42
2022-08-07T20:02:39.206Z,33.29
2022-08-07T20:05:28.608Z,33.36
2022-08-07T20:08:27.382Z,33.51
2022-08-07T20:11:15.117Z,33.95
2022-08-07T20:14:20.867Z,34.08
2022-08-07T20:17:05.210Z,34.39
2022-08-07T20:20:08.400Z,34.87
2022-08-07T20:22:39.986Z,35.33
2022-08-07T20:27:58.306Z,35.50
2022-08-07T20:30:34.363Z,35.77
2022-08-07T20:33:03.860Z,36.05
2022-08-07T20:35:51.731Z,36.51
2022-08-07T20:38:22.080Z,36.66
2022-08-07T20:40:53.311Z,36.75
2022-08-07T20:43:25.583Z,36.88
2022-08-07T20:46:28.721Z,36.89
2022-08-07T20:48:58.155Z,37.27
2022-08-07T20:51:35.776Z,37.71
2022-08-07T20:54:08.597Z,38.30
2022-08-07T20:56:46.114Z,38.63
2022-08-07T20:59:27.186Z,38.98
2022-08-07T21:02:31.782Z,39.24
2022-08-07T21:05:00.637Z,39.26
2022-08-07T21:07:32.880Z,39.80
2022-08-07T21:10:02.105Z,39.92
2022-08-07T21:12:34.229Z,40.38
2022-08-07T21:15:07.243Z,40.75
2022-08-07T21:18:02.675Z,41.13
2022-08-07T21:20:30.193Z,41.29
2022-08-07T21:23:08.665Z,41.65
2022-08-07T21:25:56.309Z,41.97
2022-08-07T21:28:48.013Z,42.31
2022-08-07T21:32:10.795Z,42.53
2022-08-07T21:34:32.225Z,42.69
2022-08-07T21:37:04.068Z,42.41
2022-08-07T21:39:48.229Z,42.20
2022-08-07T21:42:42.352Z,42.31
2022-08-07T21:45:42.139Z,42.52
2022-08-07T21:48:29.012Z,42.32
2022-08-07T21:51:05.741Z,42.60
2022-08-07T21:53:46.606Z,42.53
2022-08-07T21:56:47.010Z,42.58
2022-08-07T21:59:31.019Z,42.89
2022-08-07T22:02:31.012Z,42.93
2022-08-07T22:05:00.544Z,42.54
2022-08-07T22:07:48.584Z,42.08
2022-08-07T22:10:21.569Z,42.13
2022-08-07T22:12:55.367Z,41.44
2022-08-07T22:16:41.560Z,41.33
2022-08-07T22:18:24.494Z,41.18
2022-08-07T22:21:11.565Z,40.90
2022-08-07T22:23:45.026Z,40.58
2022-08-07T22:26:13.669Z,40.90
2022-08-07T22:28:55.701Z,41.30
2022-08-07T22:31:55.889Z,41.48
2022-08-07T22:34:35.600Z,41.39
2022-08-07T22:38:03.646Z,41.27
2022-08-07T22:40:39.729Z,40.93
2022-08-07T22:43:10.760Z,40.90
2022-08-07T22:46:41.048Z,40.87
2022-08-07T22:49:07.679Z,40.95
2022-08-07T22:52:19.599Z,41.41
2022-08-07T22:55:23.029Z,41.91
2022-08-07T22:58:04.624Z,42.38
2022-08-07T23:01:10.939Z,42.17
2022-08-07T23:04:02.722Z,41.74
2022-08-07T23:07:00.316Z,41.88
2022-08-07T23:10:05.190Z,42.33
2022-08-07T23:12:42.692Z,42.75
2022-08-07T23:16:06.092Z,42.42
2022-08-07T23:18:32.334Z,42.86
2022-08-07T23:21:16.752Z,42.88
2022-08-07T23:24:11.614Z,42.97
2022-08-07T23:26:58.294Z,43.11
2022-08-07T23:29:43.414Z,43.02
2022-08-07T23:34:20.231Z,43.59
2022-08-07T23:35:27.096Z,44.49
2022-08-07T23:38:11.703Z,44.18
2022-08-07T23:41:20.992Z,44.70
2022-08-07T23:44:11.770Z,44.38
2022-08-07T23:46:47.962Z,44.36
2022-08-07T23:49:42.276Z,44.80
2022-08-07T23:53:05.615Z,44.93
2022-08-07T23:55:52.907Z,45.26
2022-08-07T23:58:50.788Z,45.74
